Time;durP1;ratioP1;P1;durP2;ratioP2;P2;SDS_P1;SDS_P2;PMS_P1;PMS_P2;Temp;Humidity;BMP_temperature;BMP_pressure;BME280_temperature;BME280_humidity;BME280_pressure;Samples;Min_cycle;Max_cycle;Signal;HPM_P1;HPM_P2
2022/03/03 00:02:10;;;;;;;13.18;10.28;;;;;;;6.92;65.10;99382.64;1688918;83;21413;-59
2022/03/03 00:04:37;;;;;;;11.73;10.03;;;;;;;6.81;65.24;99379.05;1699494;83;21451;-59
2022/03/03 00:07:04;;;;;;;11.40;9.28;;;;;;;6.80;65.39;99373.44;1695240;82;21399;-60
2022/03/03 00:09:31;;;;;;;11.30;9.58;;;;;;;6.85;65.47;99378.96;1700444;83;20948;-59
2022/03/03 00:11:58;;;;;;;12.43;9.48;;;;;;;6.86;65.48;99375.00;1692160;82;21362;-60
2022/03/03 00:14:25;;;;;;;10.50;9.40;;;;;;;6.89;65.55;99367.04;1691976;82;22450;-59
2022/03/03 00:16:52;;;;;;;13.20;9.28;;;;;;;6.88;65.50;99377.57;1706152;83;21668;-60
2022/03/03 00:19:19;;;;;;;9.93;8.83;;;;;;;6.83;65.46;99372.02;1687231;82;21479;-60
2022/03/03 00:21:46;;;;;;;9.83;8.53;;;;;;;6.78;65.67;99373.06;1682941;82;21450;-60
2022/03/03 00:24:13;;;;;;;9.60;8.60;;;;;;;6.88;65.57;99367.96;1681400;82;21617;-59
2022/03/03 00:26:40;;;;;;;14.00;10.20;;;;;;;6.93;65.43;99369.98;1697516;83;22473;-59
2022/03/03 00:29:07;;;;;;;11.90;9.30;;;;;;;6.94;65.28;99368.22;1695584;83;20883;-59
2022/03/03 00:31:34;;;;;;;11.15;9.63;;;;;;;6.88;65.34;99367.12;1683091;83;20989;-60
2022/03/03 00:34:01;;;;;;;10.65;9.03;;;;;;;6.81;65.19;99363.37;1680495;83;21484;-59
2022/03/03 00:36:28;;;;;;;9.97;8.60;;;;;;;6.77;65.36;99364.84;1693834;82;21546;-59
2022/03/03 00:38:54;;;;;;;9.85;8.23;;;;;;;6.80;65.43;99359.06;1686297;83;22613;-59
2022/03/03 00:41:21;;;;;;;10.32;9.03;;;;;;;6.85;65.44;99357.59;1690916;82;21447;-59
2022/03/03 00:43:48;;;;;;;13.03;10.20;;;;;;;6.86;65.26;99355.86;1681245;83;21437;-59
2022/03/03 00:46:14;;;;;;;11.35;9.35;;;;;;;6.84;65.12;99358.52;1678465;83;21519;-59
2022/03/03 00:48:41;;;;;;;12.40;9.58;;;;;;;6.84;65.10;99349.38;1692350;82;21446;-59
2022/03/03 00:51:08;;;;;;;10.35;9.08;;;;;;;6.82;65.06;99349.41;1681605;83;22525;-59
2022/03/03 00:53:37;;;;;;;11.00;9.25;;;;;;;6.88;65.09;99344.91;1688374;82;21535;-59
2022/03/03 00:56:04;;;;;;;10.23;8.53;;;;;;;6.91;65.11;99344.78;1695508;83;21423;-59
2022/03/03 00:58:31;;;;;;;11.33;9.43;;;;;;;7.01;64.91;99340.98;1692736;82;20983;-59
2022/03/03 01:01:00;;;;;;;14.40;10.38;;;;;;;7.00;64.85;99336.64;1683387;83;21593;-59
2022/03/03 01:03:29;;;;;;;13.80;10.40;;;;;;;6.93;64.73;99340.36;1681713;83;22825;-58
2022/03/03 01:05:56;;;;;;;14.33;10.28;;;;;;;6.88;64.69;99335.30;1689667;83;21126;-59
2022/03/03 01:08:22;;;;;;;16.70;10.68;;;;;;;6.88;64.76;99335.75;1685705;83;21597;-58
2022/03/03 01:10:49;;;;;;;15.20;10.45;;;;;;;6.92;64.88;99330.36;1681927;83;21488;-58
2022/03/03 01:13:16;;;;;;;17.48;10.93;;;;;;;6.98;64.89;99332.77;1685531;83;21514;-58
2022/03/03 01:15:44;;;;;;;19.87;11.40;;;;;;;7.03;64.76;99337.86;1690889;82;22433;-59
2022/03/03 01:18:11;;;;;;;;;;;;;;;6.95;64.78;99332.89;1677097;83;21481;-58
2022/03/03 01:20:38;;;;;;;14.63;10.38;;;;;;;6.89;64.81;99338.75;1678715;83;20284;-58
2022/03/03 01:23:04;;;;;;;19.02;12.33;;;;;;;6.87;64.89;99340.11;1667123;84;21403;-58
2022/03/03 01:25:31;;;;;;;18.75;10.68;;;;;;;6.90;64.89;99341.32;1665739;83;21568;-59
2022/03/03 01:27:58;;;;;;;20.75;11.33;;;;;;;6.94;64.97;99336.85;1674412;83;21897;-58
2022/03/03 01:30:25;;;;;;;21.27;12.23;;;;;;;7.00;64.88;99332.72;1671572;83;20907;-58
2022/03/03 01:32:51;;;;;;;14.93;11.53;;;;;;;7.00;64.84;99341.41;1670041;84;21562;-58
2022/03/03 01:35:18;;;;;;;16.95;11.30;;;;;;;6.95;64.72;99335.93;1682456;83;20894;-58
2022/03/03 01:37:45;;;;;;;16.77;11.90;;;;;;;6.86;64.74;99327.11;1674861;83;20986;-59
2022/03/03 01:40:12;;;;;;;17.42;10.70;;;;;;;6.86;64.80;99324.50;1668651;83;22500;-59
2022/03/03 01:42:39;;;;;;;16.93;11.57;;;;;;;6.87;64.94;99329.65;1668970;84;21582;-59
2022/03/03 01:45:06;;;;;;;18.07;11.73;;;;;;;6.90;65.01;99325.64;1681051;83;21494;-59
2022/03/03 01:47:34;;;;;;;17.65;12.43;;;;;;;6.95;65.02;99328.09;1681406;83;21540;-59
2022/03/03 01:50:01;;;;;;;15.32;11.78;;;;;;;6.96;64.91;99325.89;1681433;83;20871;-59
2022/03/03 01:52:28;;;;;;;16.90;12.10;;;;;;;6.83;65.03;99321.52;1683574;83;21433;-59
2022/03/03 01:54:54;;;;;;;17.80;11.63;;;;;;;6.79;65.04;99319.45;1669738;83;21447;-59
2022/03/03 01:57:22;;;;;;;15.95;11.65;;;;;;;6.78;65.19;99316.45;1674922;83;20935;-59
2022/03/03 01:59:49;;;;;;;15.18;11.05;;;;;;;6.86;65.18;99317.97;1674048;83;21432;-59
2022/03/03 02:02:16;;;;;;;15.85;11.73;;;;;;;6.90;65.08;99309.11;1674311;83;21428;-59
2022/03/03 02:04:43;;;;;;;16.52;12.28;;;;;;;6.90;65.13;99310.42;1678496;83;22783;-59
2022/03/03 02:07:10;;;;;;;15.48;12.05;;;;;;;6.95;65.08;99315.02;1682690;83;21524;-59
2022/03/03 02:09:38;;;;;;;16.60;12.47;;;;;;;6.92;64.92;99307.30;1674538;83;21600;-59
2022/03/03 02:12:05;;;;;;;17.52;12.50;;;;;;;6.89;64.92;99308.23;1654642;84;21625;-58
2022/03/03 02:14:49;;;;;;;17.17;12.50;;;;;;;6.85;64.91;99307.94;1676217;83;20989;-58
2022/03/03 02:17:16;;;;;;;17.17;12.85;;;;;;;6.81;64.93;99307.19;1682172;84;22887;-58
2022/03/03 02:19:44;;;;;;;16.15;11.12;;;;;;;6.79;64.99;99311.61;1686723;82;21427;-58
2022/03/03 02:22:11;;;;;;;18.23;12.45;;;;;;;6.79;65.83;99306.38;1686046;82;21288;-57
2022/03/03 02:24:38;;;;;;;18.50;12.75;;;;;;;6.79;65.34;99304.23;1681291;82;21506;-58
2022/03/03 02:27:05;;;;;;;15.20;11.47;;;;;;;6.77;65.18;99306.05;1679399;83;21415;-58
2022/03/03 02:29:32;;;;;;;16.82;11.25;;;;;;;6.75;65.31;99302.63;1686395;82;22510;-58
2022/03/03 02:32:00;;;;;;;16.75;12.10;;;;;;;6.78;65.26;99299.89;1688813;82;21559;-58
2022/03/03 02:34:27;;;;;;;18.45;12.47;;;;;;;6.85;65.18;99294.88;1689113;82;21471;-58
2022/03/03 02:36:53;;;;;;;16.32;11.30;;;;;;;6.90;64.99;99297.36;1677916;84;21506;-58
2022/03/03 02:39:20;;;;;;;16.05;12.15;;;;;;;6.95;64.97;99295.41;1687067;82;21344;-58
2022/03/03 02:41:47;;;;;;;17.62;12.43;;;;;;;6.95;64.93;99290.19;1678502;82;22539;-58
2022/03/03 02:44:13;;;;;;;19.12;13.05;;;;;;;6.56;65.00;99232.69;1687725;83;20882;-59
2022/03/03 02:46:40;;;;;;;17.25;12.58;;;;;;;6.80;64.87;99281.97;1678014;82;21525;-58
2022/03/03 02:49:08;;;;;;;18.92;11.97;;;;;;;6.74;64.91;99283.92;1690217;82;21415;-58
2022/03/03 02:51:37;;;;;;;17.32;11.55;;;;;;;6.77;65.05;99274.69;1676254;82;21526;-59
2022/03/03 02:54:04;;;;;;;17.55;11.55;;;;;;;6.82;64.98;99283.23;1690751;82;22433;-59
2022/03/03 02:56:31;;;;;;;14.33;11.45;;;;;;;6.90;65.01;99278.59;1681810;84;21505;-59
2022/03/03 02:58:57;;;;;;;15.20;10.98;;;;;;;6.90;65.02;99268.14;1687905;82;21455;-59
2022/03/03 03:01:24;;;;;;;16.93;12.33;;;;;;;6.87;65.03;99268.23;1686206;82;21492;-59
2022/03/03 03:03:51;;;;;;;19.87;13.35;;;;;;;6.83;64.90;99266.17;1690378;84;21384;-59
2022/03/03 03:06:20;;;;;;;16.73;11.73;;;;;;;6.80;65.13;99264.14;1685172;82;21436;-60
2022/03/03 03:08:47;;;;;;;20.25;12.30;;;;;;;6.82;65.17;99264.48;1686871;83;21387;-59
2022/03/03 03:11:14;;;;;;;15.43;11.22;;;;;;;6.90;65.11;99262.07;1682610;82;21511;-60
2022/03/03 03:13:40;;;;;;;16.97;12.13;;;;;;;6.88;65.08;99259.97;1677450;84;21636;-60
2022/03/03 03:16:08;;;;;;;17.65;12.58;;;;;;;6.88;64.88;99262.11;1685208;83;21427;-59
2022/03/03 03:18:35;;;;;;;16.60;11.55;;;;;;;6.70;64.96;99260.11;1675544;83;22929;-60
2022/03/03 03:21:02;;;;;;;16.90;11.45;;;;;;;6.67;65.13;99253.24;1677751;84;21542;-59
2022/03/03 03:23:30;;;;;;;16.50;12.15;;;;;;;6.72;65.25;99253.07;1672810;83;21441;-60
2022/03/03 03:25:57;;;;;;;16.40;11.80;;;;;;;6.77;65.08;99251.17;1681014;83;21313;-59
2022/03/03 03:28:24;;;;;;;19.25;12.55;;;;;;;6.83;65.12;99253.56;1685333;83;21531;-60
2022/03/03 03:30:51;;;;;;;17.85;11.97;;;;;;;6.85;65.07;99246.53;1678029;84;22492;-60
2022/03/03 03:33:18;;;;;;;17.17;11.83;;;;;;;6.81;72.32;99246.23;1685314;83;20871;-61
2022/03/03 03:35:45;;;;;;;16.97;11.80;;;;;;;6.80;65.73;99246.70;1687294;83;21772;-60
2022/03/03 03:38:12;;;;;;;16.55;11.57;;;;;;;6.72;65.34;99243.47;1682807;83;21456;-60
2022/03/03 03:40:39;;;;;;;17.25;11.88;;;;;;;6.82;65.14;99235.73;1680369;83;21384;-60
2022/03/03 03:43:05;;;;;;;15.88;10.98;;;;;;;6.81;65.05;99234.02;1680095;83;22826;-60
2022/03/03 03:45:34;;;;;;;15.15;10.98;;;;;;;6.80;65.09;99238.02;1687477;83;21633;-60
2022/03/03 03:48:00;;;;;;;15.05;11.40;;;;;;;6.80;65.04;99236.24;1678391;83;21446;-60
2022/03/03 03:50:28;;;;;;;17.17;12.93;;;;;;;6.82;65.05;99228.36;1681964;84;21389;-60
2022/03/03 03:52:55;;;;;;;15.43;10.93;;;;;;;6.77;64.82;99227.66;1669539;84;20887;-60
2022/03/03 03:55:22;;;;;;;13.30;10.30;;;;;;;6.67;65.14;99221.89;1686093;83;22301;-60
2022/03/03 03:57:48;;;;;;;14.20;10.50;;;;;;;6.72;65.05;99219.11;1683664;83;21582;-60
2022/03/03 04:00:15;;;;;;;14.85;10.78;;;;;;;6.75;65.09;99213.33;1679249;83;21668;-60
2022/03/03 04:02:44;;;;;;;13.03;10.20;;;;;;;6.72;65.41;99213.88;1683313;83;21424;-60
2022/03/03 04:05:11;;;;;;;14.47;11.15;;;;;;;6.81;65.16;99214.88;1689362;83;21353;-60
2022/03/03 04:07:42;;;;;;;14.35;10.53;;;;;;;6.81;65.01;99209.66;1683402;83;21631;-60
2022/03/03 04:10:11;;;;;;;15.00;10.78;;;;;;;6.70;65.03;99211.78;1676914;83;21443;-60
2022/03/03 04:12:39;;;;;;;12.45;9.70;;;;;;;6.66;65.18;99207.56;1686592;84;21375;-60
2022/03/03 04:15:07;;;;;;;11.95;9.40;;;;;;;6.69;65.29;99212.23;1682486;84;21462;-60
2022/03/03 04:17:34;;;;;;;13.05;9.10;;;;;;;6.77;65.17;99204.14;1692988;82;21587;-60
2022/03/03 04:20:02;;;;;;;13.57;10.03;;;;;;;6.79;65.20;99203.63;1682445;82;22573;-58
2022/03/03 04:22:29;;;;;;;14.03;9.80;;;;;;;6.78;65.01;99211.93;1692704;83;21707;-59
2022/03/03 04:24:56;;;;;;;11.75;9.38;;;;;;;6.74;64.90;99210.76;1690673;82;21399;-59
2022/03/03 04:27:22;;;;;;;11.35;9.38;;;;;;;6.65;64.96;99202.80;1680441;82;21411;-59
2022/03/03 04:29:49;;;;;;;11.15;9.00;;;;;;;6.69;64.97;99210.93;1687423;82;21553;-59
2022/03/03 04:32:15;;;;;;;11.10;9.13;;;;;;;6.73;64.92;99198.16;1684558;82;22337;-59
2022/03/03 04:34:42;;;;;;;12.07;9.30;;;;;;;6.74;64.98;99201.62;1683338;83;21024;-60
2022/03/03 04:37:09;;;;;;;13.88;10.45;;;;;;;6.78;65.04;99201.48;1681664;82;21413;-59
2022/03/03 04:39:36;;;;;;;15.67;9.93;;;;;;;6.85;64.93;99201.26;1697150;84;21484;-59
2022/03/03 04:42:03;;;;;;;13.85;9.83;;;;;;;6.88;64.84;99202.47;1687448;82;21487;-59
2022/03/03 04:44:30;;;;;;;14.00;10.10;;;;;;;6.88;64.63;99202.01;1684786;82;22377;-59
2022/03/03 04:46:57;;;;;;;13.35;10.08;;;;;;;6.86;64.74;99198.59;1682447;84;21371;-58
2022/03/03 04:49:23;;;;;;;16.75;10.28;;;;;;;6.95;64.69;99195.66;1690129;82;21546;-59
2022/03/03 04:51:50;;;;;;;15.63;10.58;;;;;;;7.04;64.55;99195.77;1691661;82;21606;-59
2022/03/03 04:54:18;;;;;;;14.05;10.58;;;;;;;7.11;64.47;99200.34;1679070;83;21503;-59
2022/03/03 04:56:44;;;;;;;16.48;11.55;;;;;;;7.15;64.21;99194.94;1684553;82;26239;-59
2022/03/03 04:59:11;;;;;;;15.53;11.45;;;;;;;7.11;64.22;99201.66;1675703;82;21472;-60
2022/03/03 05:01:38;;;;;;;15.95;11.08;;;;;;;7.07;64.14;99193.52;1691408;83;21092;-59
2022/03/03 05:04:05;;;;;;;17.23;11.85;;;;;;;7.01;64.20;99198.05;1687752;82;21042;-58
2022/03/03 05:06:32;;;;;;;13.75;10.15;;;;;;;6.96;64.10;99192.13;1685609;82;21562;-59
2022/03/03 05:08:59;;;;;;;14.13;9.95;;;;;;;6.99;64.20;99188.11;1679107;82;22349;-59
2022/03/03 05:11:25;;;;;;;13.28;10.05;;;;;;;7.01;64.13;99189.37;1684335;82;21006;-59
2022/03/03 05:13:53;;;;;;;10.72;8.45;;;;;;;6.99;64.09;99195.11;1680786;83;21570;-59
2022/03/03 05:16:20;;;;;;;12.65;9.65;;;;;;;6.98;64.19;99190.77;1692387;82;21126;-59
2022/03/03 05:18:47;;;;;;;11.05;8.33;;;;;;;6.90;63.99;99196.73;1693808;83;21471;-59
2022/03/03 05:21:13;;;;;;;12.73;9.35;;;;;;;6.83;64.13;99197.38;1683565;83;22391;-59
2022/03/03 05:23:40;;;;;;;12.85;8.85;;;;;;;6.79;64.15;99190.56;1682122;83;21409;-59
2022/03/03 05:26:07;;;;;;;11.93;8.90;;;;;;;6.76;64.27;99191.96;1676626;83;21495;-59
2022/03/03 05:28:34;;;;;;;11.93;8.80;;;;;;;6.79;64.42;99190.09;1724294;81;22034;-60
2022/03/03 05:31:01;;;;;;;11.73;8.23;;;;;;;6.92;64.17;99193.14;1674810;84;20882;-59
2022/03/03 05:33:29;;;;;;;12.82;7.55;;;;;;;6.92;64.18;99190.53;1693837;84;22377;-59
2022/03/03 05:36:04;;;;;;;;;;;;;;;6.96;64.19;99192.59;1710854;81;21599;-59
2022/03/03 05:38:33;;;;;;;11.08;8.63;;;;;;;6.96;64.03;99188.67;1721089;82;20429;-59
2022/03/03 05:40:59;;;;;;;11.83;8.75;;;;;;;6.97;63.93;99189.08;1693242;84;21390;-59
2022/03/03 05:43:26;;;;;;;11.53;8.40;;;;;;;6.95;63.77;99187.83;1678733;83;21541;-59
2022/03/03 05:45:54;;;;;;;10.10;7.87;;;;;;;6.93;63.79;99188.33;1721527;82;22704;-59
2022/03/03 05:48:22;;;;;;;10.48;8.05;;;;;;;6.90;63.68;99187.13;1693686;83;21346;-59
2022/03/03 05:50:50;;;;;;;12.75;8.78;;;;;;;6.86;63.98;99189.91;1716876;82;21371;-59
2022/03/03 05:53:16;;;;;;;11.05;8.25;;;;;;;6.88;63.99;99194.63;1682344;83;21442;-59
2022/03/03 05:55:50;;;;;;;11.20;7.95;;;;;;;6.85;64.05;99193.41;1721819;80;21526;-60
2022/03/03 05:58:21;;;;;;;9.45;7.53;;;;;;;6.81;64.14;99190.89;1729429;80;22332;-59
2022/03/03 06:00:49;;;;;;;8.68;7.22;;;;;;;6.80;64.29;99186.59;1731715;80;21347;-60
2022/03/03 06:03:17;;;;;;;9.68;7.30;;;;;;;6.82;64.37;99184.78;1728385;80;21465;-60
2022/03/03 06:05:51;;;;;;;8.43;7.12;;;;;;;6.86;64.37;99183.38;1721998;80;21523;-61
2022/03/03 06:08:26;;;;;;;10.68;8.50;;;;;;;6.94;64.34;99186.56;1723598;81;21061;-60
2022/03/03 06:10:53;;;;;;;9.70;7.35;;;;;;;6.93;64.21;99179.19;1686335;84;22395;-60
2022/03/03 06:13:24;;;;;;;10.08;7.75;;;;;;;6.92;64.15;99180.54;1735737;79;20839;-60
2022/03/03 06:15:52;;;;;;;11.43;8.28;;;;;;;6.88;64.38;99181.09;1693308;82;21422;-60
2022/03/03 06:18:28;;;;;;;9.08;7.12;;;;;;;6.94;64.37;99174.80;1737934;80;21455;-60
2022/03/03 06:20:55;;;;;;;9.75;7.78;;;;;;;7.02;64.33;99179.30;1692745;83;21425;-60
2022/03/03 06:23:22;;;;;;;9.08;7.03;;;;;;;7.06;64.00;99183.96;1700305;82;22348;-61
2022/03/03 06:26:04;;;;;;;9.48;7.47;;;;;;;7.10;63.86;99175.09;1683457;83;20899;-62
2022/03/03 06:28:31;;;;;;;8.98;7.25;;;;;;;7.00;63.97;99184.57;1688786;83;20985;-61
2022/03/03 06:30:58;;;;;;;10.55;7.40;;;;;;;7.00;64.12;99179.34;1691916;82;21664;-60
2022/03/03 06:33:25;;;;;;;7.87;6.30;;;;;;;7.08;64.13;99171.22;1684580;83;21453;-60
2022/03/03 06:35:52;;;;;;;9.43;6.50;;;;;;;7.17;64.10;99169.59;1690262;83;22337;-60
2022/03/03 06:38:19;;;;;;;7.65;6.60;;;;;;;7.19;63.70;99173.45;1688710;83;21399;-60
2022/03/03 06:40:46;;;;;;;9.33;7.30;;;;;;;7.17;63.85;99169.59;1682621;83;21497;-60
2022/03/03 06:43:13;;;;;;;8.70;6.87;;;;;;;7.21;63.80;99170.33;1697542;83;21061;-60
2022/03/03 06:45:40;;;;;;;7.83;6.42;;;;;;;7.26;63.62;99163.17;1688564;82;21478;-61
2022/03/03 06:48:07;;;;;;;7.92;6.87;;;;;;;7.31;63.58;99162.99;1681302;83;22349;-60
2022/03/03 06:50:37;;;;;;;8.13;6.65;;;;;;;7.44;63.50;99160.78;1692818;82;21484;-60
2022/03/03 06:53:04;;;;;;;7.45;6.42;;;;;;;7.53;63.50;99156.51;1680246;83;21017;-60
2022/03/03 06:55:32;;;;;;;7.00;6.30;;;;;;;7.54;63.31;99163.46;1683675;83;21038;-60
2022/03/03 06:57:58;;;;;;;7.90;6.47;;;;;;;7.42;62.75;99158.21;1691808;84;21436;-60
2022/03/03 07:00:33;;;;;;;7.67;6.37;;;;;;;7.44;63.26;99165.58;1673875;84;22437;-60
2022/03/03 07:03:02;;;;;;;7.47;6.30;;;;;;;7.57;63.26;99163.33;1685880;83;21381;-60
2022/03/03 07:05:30;;;;;;;8.20;6.83;;;;;;;7.67;62.96;99164.70;1677054;84;21440;-60
2022/03/03 07:07:58;;;;;;;7.87;7.05;;;;;;;7.61;62.70;99171.48;1687846;84;21448;-60
2022/03/03 07:10:25;;;;;;;7.83;6.25;;;;;;;7.54;62.63;99168.23;1681458;83;21476;-60
2022/03/03 07:12:55;;;;;;;9.13;5.97;;;;;;;7.57;62.65;99173.79;1683058;82;22343;-60
2022/03/03 07:15:23;;;;;;;9.45;6.72;;;;;;;7.59;62.66;99175.89;1684369;82;22099;-60
2022/03/03 07:18:01;;;;;;;8.10;7.17;;;;;;;7.62;62.59;99169.24;1680877;83;21380;-60
2022/03/03 07:20:58;;;;;;;;;;;;;;;7.71;62.58;99166.27;1688703;83;21387;-60
2022/03/03 07:23:38;;;;;;;8.65;6.97;;;;;;;7.71;62.66;99164.13;1694534;83;27418;-60
2022/03/03 07:26:10;;;;;;;9.00;6.78;;;;;;;7.67;62.57;99167.77;1685392;83;21539;-60
2022/03/03 07:28:43;;;;;;;7.45;6.65;;;;;;;7.60;62.39;99160.14;1688448;83;21512;-59
2022/03/03 07:31:09;;;;;;;7.12;6.17;;;;;;;7.62;62.42;99167.94;1720727;80;21491;-60
2022/03/03 07:33:56;;;;;;;7.10;5.80;;;;;;;7.67;62.46;99167.77;1701594;82;21210;-60
2022/03/03 07:36:28;;;;;;;7.65;6.85;;;;;;;7.66;62.36;99161.67;1733475;80;21527;-60
2022/03/03 07:39:00;;;;;;;7.95;6.85;;;;;;;7.60;62.13;99164.06;1728594;80;22334;-60
2022/03/03 07:41:28;;;;;;;7.53;6.37;;;;;;;7.61;62.10;99158.40;1689856;82;21438;-59
2022/03/03 07:43:56;;;;;;;8.10;6.62;;;;;;;7.56;62.12;99158.55;1732944;80;21546;-59
2022/03/03 07:46:24;;;;;;;7.22;6.05;;;;;;;7.54;62.14;99153.00;1741852;80;21061;-61
2022/03/03 07:48:53;;;;;;;7.75;6.92;;;;;;;7.62;62.25;99156.16;1738966;80;21462;-60
2022/03/03 07:51:20;;;;;;;7.55;5.72;;;;;;;7.59;61.78;99145.37;1713565;80;22354;-61
2022/03/03 07:53:48;;;;;;;6.60;5.90;;;;;;;7.63;62.02;99150.47;1715327;80;21363;-59
2022/03/03 07:56:33;;;;;;;6.17;5.60;;;;;;;7.65;62.26;99151.25;1735290;80;21434;-59
2022/03/03 07:59:05;;;;;;;7.03;6.00;;;;;;;7.74;62.33;99150.90;1723320;81;20875;-59
2022/03/03 08:01:34;;;;;;;6.65;5.95;;;;;;;7.75;62.04;99148.70;1688785;83;20941;-59
2022/03/03 08:04:01;;;;;;;;;;;;;;;7.75;62.13;99147.38;1731363;80;22320;-60
2022/03/03 08:06:30;;;;;;;7.00;6.30;;;;;;;7.77;62.07;99149.02;1734269;80;20783;-60
2022/03/03 08:08:57;;;;;;;6.08;5.45;;;;;;;7.78;61.79;99145.97;1741427;80;21463;-59
2022/03/03 08:11:24;;;;;;;7.35;6.17;;;;;;;7.82;61.60;99151.91;1740586;80;21574;-59
2022/03/03 08:13:52;;;;;;;7.27;6.20;;;;;;;7.83;61.51;99149.70;1743547;80;20859;-59
2022/03/03 08:16:19;;;;;;;;;;;;;;;7.85;61.57;99150.02;1694319;83;21783;-60
2022/03/03 08:18:47;;;;;;;5.92;5.33;;;;;;;7.89;61.70;99149.45;1655836;84;29442;-59
2022/03/03 08:21:15;;;;;;;6.37;5.78;;;;;;;7.85;61.50;99146.56;1696001;82;21519;-60
2022/03/03 08:23:45;;;;;;;6.08;5.47;;;;;;;7.80;61.63;99144.98;1704339;83;21458;-60
2022/03/03 08:26:13;;;;;;;6.12;5.50;;;;;;;7.80;61.45;99145.45;1706592;82;21545;-60
2022/03/03 08:28:41;;;;;;;6.03;5.42;;;;;;;7.87;61.52;99139.50;1697758;82;22368;-60
2022/03/03 08:31:08;;;;;;;8.65;6.28;;;;;;;8.02;61.47;99145.42;1679766;82;22235;-59
2022/03/03 08:33:50;;;;;;;7.92;5.90;;;;;;;7.99;61.05;99226.27;1699378;82;21509;-59
2022/03/03 08:36:36;;;;;;;6.55;5.60;;;;;;;8.02;60.89;99142.80;1682448;83;21447;-60
2022/03/03 08:39:06;;;;;;;6.75;6.05;;;;;;;8.02;60.80;99139.34;1698545;83;21477;-60
2022/03/03 08:41:38;;;;;;;7.80;5.62;;;;;;;8.03;60.53;99146.30;1697607;83;22174;-60
2022/03/03 08:44:07;;;;;;;6.10;5.50;;;;;;;8.16;60.61;99147.03;1697213;82;21551;-60
2022/03/03 08:46:35;;;;;;;6.40;5.80;;;;;;;8.26;60.42;99142.27;1686767;83;21386;-60
2022/03/03 08:49:07;;;;;;;6.42;5.80;;;;;;;8.32;60.00;99134.61;1696758;83;21564;-60
2022/03/03 08:51:34;;;;;;;6.55;5.95;;;;;;;8.30;59.79;99139.91;1698337;83;21581;-60
2022/03/03 09:32:34;;;;;;;5.72;5.12;;;;;;;7.60;62.24;99137.90;1822360;76;23147;-61
2022/03/03 09:35:01;;;;;;;5.40;4.87;;;;;;;8.56;57.28;99144.09;1786480;78;21387;-61
2022/03/03 09:37:29;;;;;;;5.05;4.55;;;;;;;8.58;57.19;99137.48;1803207;78;22835;-61
2022/03/03 09:39:55;;;;;;;5.92;5.22;;;;;;;8.70;57.18;99136.97;1805953;77;21477;-61
2022/03/03 09:42:23;;;;;;;5.47;4.95;;;;;;;8.79;57.10;99137.02;1794716;78;21367;-62
2022/03/03 09:44:50;;;;;;;5.53;5.00;;;;;;;8.83;56.83;99131.17;1809478;78;21486;-62
2022/03/03 09:47:17;;;;;;;6.25;5.65;;;;;;;8.91;56.95;99130.38;1810796;78;21040;-62
2022/03/03 09:49:44;;;;;;;6.90;6.20;;;;;;;8.88;56.72;99119.57;1796048;78;22545;-63
2022/03/03 09:52:14;;;;;;;7.10;6.40;;;;;;;8.93;56.86;99116.30;1796307;77;21528;-61
2022/03/03 09:54:43;;;;;;;7.62;5.75;;;;;;;9.06;56.99;99117.91;1800720;78;21477;-61
2022/03/03 09:57:10;;;;;;;7.03;6.28;;;;;;;9.14;56.62;99117.56;1796178;78;21044;-62
2022/03/03 09:59:37;;;;;;;6.37;5.78;;;;;;;9.22;56.28;99119.37;1795023;78;21361;-60
2022/03/03 10:02:07;;;;;;;7.25;6.55;;;;;;;9.22;56.51;99118.06;1798935;78;21394;-61
2022/03/03 10:04:34;;;;;;;6.70;6.03;;;;;;;9.24;56.73;99115.37;1798055;78;21019;-61
2022/03/03 10:07:06;;;;;;;6.93;6.07;;;;;;;9.29;56.28;99112.92;1806508;78;21389;-61
2022/03/03 10:09:59;;;;;;;6.47;5.25;;;;;;;9.34;56.53;99112.27;1803668;78;21470;-61
2022/03/03 10:12:06;;;;;;;6.37;5.62;;;;;;;9.37;56.30;99109.10;1784107;78;21426;-61
2022/03/03 10:14:35;;;;;;;7.12;5.55;;;;;;;9.46;56.38;99104.74;1806122;77;22451;-61
2022/03/03 10:17:03;;;;;;;6.22;5.62;;;;;;;9.45;56.31;99105.65;1803212;78;21462;-61
2022/03/03 10:19:31;;;;;;;7.37;6.67;;;;;;;9.43;56.09;99110.97;1794975;78;21502;-62
2022/03/03 10:21:58;;;;;;;;;;;;;;;9.44;55.96;99101.34;1799056;78;21534;-62
2022/03/03 10:24:29;;;;;;;8.20;6.20;;;;;;;9.38;56.06;99112.09;1794072;78;20439;-61
2022/03/03 10:26:59;;;;;;;6.08;5.50;;;;;;;9.26;55.76;99106.50;1790594;78;22467;-61
2022/03/03 10:29:27;;;;;;;6.00;5.45;;;;;;;9.33;55.87;99104.45;1794861;78;20828;-61
2022/03/03 10:31:56;;;;;;;;;;;;;;;9.35;56.18;99107.39;1790348;77;21379;-61
2022/03/03 10:34:31;;;;;;;6.90;6.22;;;;;;;9.48;55.73;99097.64;1782155;79;20485;-61
2022/03/03 10:37:07;;;;;;;7.95;5.67;;;;;;;9.37;55.39;99097.30;1786414;79;21363;-61
2022/03/03 10:39:59;;;;;;;6.50;5.33;;;;;;;9.27;55.64;99093.78;1793804;78;22597;-59
2022/03/03 10:42:26;;;;;;;6.22;5.72;;;;;;;9.31;55.97;99095.81;1788194;79;21399;-60
2022/03/03 10:45:15;;;;;;;6.00;5.40;;;;;;;9.33;55.90;99096.11;1793598;79;21522;-61
2022/03/03 10:47:46;;;;;;;6.17;5.58;;;;;;;9.38;55.85;99085.42;1787057;77;21486;-60
2022/03/03 10:50:13;;;;;;;5.40;4.90;;;;;;;9.47;56.14;99086.28;1790211;77;20950;-61
2022/03/03 10:52:41;;;;;;;;;;;;;;;9.58;55.98;99088.41;1803571;77;22490;-61
2022/03/03 10:55:13;;;;;;;6.40;5.70;;;;;;;9.51;55.73;99088.30;1789966;78;20836;-61
2022/03/03 10:57:58;;;;;;;5.90;5.12;;;;;;;9.47;55.84;99088.90;1800351;78;21005;-61
2022/03/03 11:00:27;;;;;;;6.50;5.85;;;;;;;9.37;55.63;99095.98;1803055;78;21396;-62
2022/03/03 11:03:23;;;;;;;6.25;5.65;;;;;;;9.30;55.68;99091.47;1800976;78;21491;-62
2022/03/03 11:05:55;;;;;;;5.08;4.67;;;;;;;9.28;56.00;99092.00;1797682;78;22460;-60
2022/03/03 11:08:40;;;;;;;5.75;5.15;;;;;;;9.33;56.28;99089.56;1741724;81;21522;-60
2022/03/03 11:11:22;;;;;;;5.08;4.58;;;;;;;9.42;55.87;99086.98;1721089;81;21382;-61
2022/03/03 11:13:58;;;;;;;5.40;4.92;;;;;;;9.49;56.05;99082.27;1709390;82;21423;-60
2022/03/03 11:16:45;;;;;;;6.47;5.65;;;;;;;9.47;55.40;99080.19;1734418;81;21084;-61
2022/03/03 11:19:11;;;;;;;6.03;5.47;;;;;;;9.43;55.28;99080.79;1727892;81;22461;-60
2022/03/03 11:21:39;;;;;;;;;;;;;;;9.47;55.38;99080.19;1732796;81;21477;-60
2022/03/03 11:24:09;;;;;;;5.67;5.05;;;;;;;9.46;55.14;99074.09;1735136;81;20470;-60
2022/03/03 11:26:44;;;;;;;6.15;5.55;;;;;;;9.45;55.28;99072.85;1728048;81;21514;-60
2022/03/03 11:29:15;;;;;;;5.90;5.37;;;;;;;9.45;54.57;99071.54;1732573;81;21434;-61
2022/03/03 11:31:46;;;;;;;7.12;5.25;;;;;;;9.50;55.34;99070.39;1734914;81;22531;-61
2022/03/03 11:34:31;;;;;;;5.90;5.35;;;;;;;9.60;56.76;99069.48;1740035;81;21533;-61
2022/03/03 11:37:12;;;;;;;6.08;5.50;;;;;;;9.65;55.51;99061.41;1731064;81;21541;-60
2022/03/03 11:39:53;;;;;;;6.37;5.78;;;;;;;9.67;54.99;99065.66;1738760;81;20929;-60
2022/03/03 11:42:42;;;;;;;7.55;5.80;;;;;;;9.65;54.57;99059.62;1750259;81;21549;-59
2022/03/03 11:45:18;;;;;;;6.83;5.10;;;;;;;9.61;54.32;99055.46;1747988;81;22515;-60
2022/03/03 11:47:48;;;;;;;6.60;6.00;;;;;;;9.56;54.32;99056.13;1743867;81;21474;-60
2022/03/03 11:50:20;;;;;;;6.08;5.53;;;;;;;9.60;54.71;99055.05;1749612;81;21433;-60
2022/03/03 11:53:02;;;;;;;5.95;5.35;;;;;;;9.63;54.57;99050.98;1744466;81;21327;-60
2022/03/03 11:55:37;;;;;;;6.33;5.47;;;;;;;9.59;54.67;99059.06;1750089;81;21545;-61
2022/03/03 11:58:14;;;;;;;5.58;5.08;;;;;;;9.57;54.91;99065.72;1740548;81;22517;-61
2022/03/03 12:00:48;;;;;;;6.17;5.58;;;;;;;9.49;60.06;99061.28;1738397;81;27714;-60
2022/03/03 12:03:17;;;;;;;5.95;5.35;;;;;;;9.48;54.95;99060.44;1722453;81;21442;-61
2022/03/03 12:06:08;;;;;;;5.95;5.35;;;;;;;9.37;54.18;99059.25;1744417;81;21458;-61
2022/03/03 12:08:38;;;;;;;5.72;5.22;;;;;;;9.37;54.58;99060.09;1750097;81;21390;-60
2022/03/03 12:11:16;;;;;;;6.35;4.92;;;;;;;9.38;55.61;99061.81;1753819;81;22388;-61
2022/03/03 12:13:49;;;;;;;5.62;5.12;;;;;;;9.40;54.94;99056.47;1746232;81;21510;-61
2022/03/03 12:16:34;;;;;;;5.67;5.17;;;;;;;9.44;54.84;99060.67;1737089;81;21423;-61
2022/03/03 12:19:05;;;;;;;5.45;4.95;;;;;;;9.46;54.86;99064.07;1750005;81;21575;-60
2022/03/03 12:21:48;;;;;;;5.15;4.65;;;;;;;9.43;54.53;99056.33;1745219;81;21543;-60
2022/03/03 12:24:24;;;;;;;5.42;4.92;;;;;;;9.32;54.77;99061.64;1747295;81;21838;-59
2022/03/03 12:26:58;;;;;;;4.97;4.58;;;;;;;9.38;54.83;99055.69;1747798;81;21596;-61